Time;durP1;ratioP1;P1;durP2;ratioP2;P2;SDS_P1;SDS_P2;PMS_P1;PMS_P2;Temp;Humidity;BMP_temperature;BMP_pressure;BME280_temperature;BME280_humidity;BME280_pressure;Samples;Min_cycle;Max_cycle;Signal;HPM_P1;HPM_P2
2023/08/13 04:06:19;;;;;;;4.93;3.97;;;19.30;99.90;;;;;;5186468;23;20498;-60
2023/08/13 04:08:44;;;;;;;4.07;3.53;;;19.30;99.90;;;;;;4975831;28;20777;-60
2023/08/13 04:11:10;;;;;;;2.77;2.53;;;19.30;99.90;;;;;;4976379;28;20255;-60
2023/08/13 04:13:35;;;;;;;4.40;3.63;;;19.30;99.90;;;;;;4975654;28;20238;-61
2023/08/13 04:16:01;;;;;;;4.60;4.20;;;19.30;99.90;;;;;;4975852;28;20200;-61
2023/08/13 04:18:27;;;;;;;3.60;3.30;;;19.30;99.90;;;;;;4976205;28;20226;-60
2023/08/13 04:20:52;;;;;;;4.10;3.67;;;19.30;99.90;;;;;;4975888;28;20183;-60
2023/08/13 04:23:18;;;;;;;7.40;4.37;;;19.30;99.90;;;;;;4975839;28;20230;-60
2023/08/13 04:25:44;;;;;;;3.40;3.10;;;19.30;99.90;;;;;;4975660;28;20293;-60
2023/08/13 04:28:09;;;;;;;4.13;3.73;;;19.30;99.90;;;;;;4976159;28;20248;-60
2023/08/13 04:30:35;;;;;;;4.43;4.03;;;19.30;99.90;;;;;;4975717;28;20203;-61
2023/08/13 04:33:02;;;;;;;4.40;4.10;;;19.30;99.90;;;;;;4975685;28;20268;-61
2023/08/13 04:35:28;;;;;;;4.20;2.97;;;19.30;99.90;;;;;;4974475;28;20213;-61
2023/08/13 04:37:53;;;;;;;5.37;4.43;;;19.30;99.90;;;;;;4975738;28;20773;-62
2023/08/13 04:40:19;;;;;;;4.63;4.23;;;19.30;99.90;;;;;;4975986;28;20223;-61
2023/08/13 04:42:44;;;;;;;3.93;3.63;;;19.30;99.90;;;;;;4957583;28;20514;-61
2023/08/13 04:45:12;;;;;;;5.57;4.57;;;19.40;99.90;;;;;;4975330;28;20291;-62
2023/08/13 04:47:38;;;;;;;4.67;4.03;;;19.40;99.90;;;;;;4975614;28;20218;-62
2023/08/13 04:50:05;;;;;;;3.73;3.43;;;19.40;99.90;;;;;;4975353;28;20878;-61
2023/08/13 04:52:30;;;;;;;4.27;3.90;;;19.40;99.90;;;;;;4958106;28;20822;-61
2023/08/13 04:54:56;;;;;;;4.30;3.90;;;19.40;99.90;;;;;;4975198;28;20490;-61
2023/08/13 04:57:22;;;;;;;3.73;3.10;;;19.40;99.90;;;;;;4975434;28;20187;-61
2023/08/13 04:59:47;;;;;;;6.20;3.60;;;19.50;99.90;;;;;;4975297;28;20526;-61
2023/08/13 05:02:13;;;;;;;7.13;5.60;;;19.50;99.90;;;;;;4975448;28;20176;-61
2023/08/13 05:04:38;;;;;;;4.83;3.97;;;19.50;99.90;;;;;;4974844;28;20184;-61
2023/08/13 05:07:04;;;;;;;4.23;3.57;;;19.60;99.90;;;;;;4974952;28;20192;-61
2023/08/13 05:09:31;;;;;;;3.27;2.97;;;19.50;99.90;;;;;;4975543;28;20244;-61
2023/08/13 05:11:56;;;;;;;3.67;3.23;;;19.60;99.90;;;;;;4975215;28;20177;-61
2023/08/13 05:14:22;;;;;;;4.70;4.20;;;19.60;99.90;;;;;;4974706;28;20739;-61
2023/08/13 05:16:48;;;;;;;4.63;4.10;;;19.60;99.90;;;;;;4975143;28;20199;-61
2023/08/13 05:19:14;;;;;;;4.80;3.97;;;19.60;99.90;;;;;;4975332;28;20443;-61
2023/08/13 05:21:39;;;;;;;4.73;4.07;;;19.60;99.90;;;;;;4974956;28;20168;-61
2023/08/13 05:24:05;;;;;;;5.10;4.63;;;19.60;99.90;;;;;;4957271;28;20176;-61
2023/08/13 05:26:31;;;;;;;3.80;3.30;;;19.60;99.90;;;;;;4974716;28;20283;-61
2023/08/13 05:28:57;;;;;;;4.10;3.13;;;19.60;99.90;;;;;;4974789;28;20801;-61
2023/08/13 05:31:22;;;;;;;4.30;3.87;;;19.60;99.90;;;;;;4974940;28;20230;-61
2023/08/13 05:33:48;;;;;;;3.97;3.67;;;19.60;99.90;;;;;;4974496;28;20508;-61
2023/08/13 05:36:13;;;;;;;4.23;3.90;;;19.60;99.90;;;;;;4974496;28;20203;-61
2023/08/13 05:38:39;;;;;;;4.50;3.33;;;19.60;99.90;;;;;;4974908;28;20690;-61
2023/08/13 05:41:05;;;;;;;4.87;4.37;;;19.70;99.90;;;;;;4974602;28;20649;-61
2023/08/13 05:43:31;;;;;;;4.50;3.33;;;19.70;99.90;;;;;;4974423;28;20180;-61
2023/08/13 05:45:56;;;;;;;4.00;3.60;;;19.70;99.90;;;;;;4974720;28;20192;-61
2023/08/13 05:48:22;;;;;;;4.93;4.10;;;19.70;99.90;;;;;;4974711;28;20774;-61
2023/08/13 05:50:48;;;;;;;4.57;4.10;;;19.70;99.90;;;;;;4974516;28;20250;-61
2023/08/13 05:53:13;;;;;;;4.83;4.43;;;19.70;99.90;;;;;;4974524;28;20172;-61
2023/08/13 05:55:39;;;;;;;4.97;4.30;;;19.70;99.90;;;;;;4978470;28;20200;-61
2023/08/13 05:58:05;;;;;;;4.23;3.83;;;19.70;99.90;;;;;;4978619;28;20263;-61
2023/08/13 06:00:31;;;;;;;4.33;3.93;;;19.70;99.90;;;;;;4978381;28;20184;-60
2023/08/13 06:02:57;;;;;;;4.47;4.07;;;19.70;99.90;;;;;;4978711;28;20471;-60
2023/08/13 06:05:23;;;;;;;4.77;3.47;;;19.70;99.90;;;;;;4977937;28;20442;-60
2023/08/13 06:07:48;;;;;;;4.60;3.97;;;19.70;99.90;;;;;;4978556;28;20407;-60
2023/08/13 06:10:14;;;;;;;4.10;3.80;;;19.70;99.90;;;;;;4978295;28;20232;-60
2023/08/13 06:12:40;;;;;;;3.97;3.63;;;19.70;99.90;;;;;;4978363;28;20180;-62
2023/08/13 06:15:05;;;;;;;4.50;4.10;;;19.70;99.90;;;;;;4978023;28;20188;-61
2023/08/13 06:17:31;;;;;;;3.97;3.67;;;19.70;99.90;;;;;;4978268;28;20264;-61
2023/08/13 06:19:57;;;;;;;4.67;4.20;;;19.70;99.90;;;;;;4978218;28;20411;-60
2023/08/13 06:22:23;;;;;;;6.17;4.23;;;19.80;99.90;;;;;;4978306;28;20240;-61
2023/08/13 06:24:49;;;;;;;5.20;4.27;;;19.90;99.90;;;;;;4977756;28;20443;-61
2023/08/13 06:27:15;;;;;;;4.73;3.80;;;19.90;99.90;;;;;;4978222;28;20180;-61
2023/08/13 06:29:40;;;;;;;3.43;3.13;;;20.00;99.90;;;;;;4977988;28;20986;-61
2023/08/13 06:32:06;;;;;;;4.33;4.00;;;19.90;99.90;;;;;;4977940;28;20639;-61
2023/08/13 06:34:31;;;;;;;4.00;3.70;;;20.00;99.90;;;;;;4977552;28;20198;-61
2023/08/13 06:36:57;;;;;;;3.60;3.30;;;20.00;99.90;;;;;;4977973;28;20178;-61
2023/08/13 06:39:23;;;;;;;4.90;4.47;;;20.10;99.90;;;;;;4977932;28;20211;-63
2023/08/13 06:41:49;;;;;;;3.53;3.23;;;20.10;99.90;;;;;;4977907;28;20542;-61
2023/08/13 06:44:19;;;;;;;5.30;4.57;;;20.20;99.90;;;;;;4960174;28;20428;-61
2023/08/13 06:46:46;;;;;;;4.50;4.07;;;20.20;99.90;;;;;;4977801;28;20204;-61
2023/08/13 06:49:11;;;;;;;5.77;4.63;;;20.20;99.90;;;;;;4977670;28;20460;-61
2023/08/13 06:51:38;;;;;;;4.93;4.43;;;20.20;99.90;;;;;;4977532;28;20457;-61
2023/08/13 06:54:04;;;;;;;4.30;3.90;;;20.30;99.90;;;;;;4977417;28;20534;-61
2023/08/13 06:56:30;;;;;;;3.97;3.60;;;20.40;99.90;;;;;;4977580;28;20431;-61
2023/08/13 06:58:56;;;;;;;2.80;2.60;;;20.40;99.90;;;;;;4977649;28;20542;-61
2023/08/13 07:01:21;;;;;;;3.90;3.60;;;20.40;99.90;;;;;;4977470;28;20447;-61
2023/08/13 07:03:47;;;;;;;4.13;3.50;;;20.40;99.90;;;;;;4977201;28;20498;-61
2023/08/13 07:06:12;;;;;;;2.90;2.40;;;20.40;99.90;;;;;;4976686;28;20207;-61
2023/08/13 07:08:38;;;;;;;3.27;2.97;;;20.40;99.90;;;;;;4977361;28;20251;-62
2023/08/13 07:11:04;;;;;;;3.60;3.23;;;20.30;99.90;;;;;;4977103;28;20558;-63
2023/08/13 07:13:30;;;;;;;4.27;3.33;;;20.30;99.90;;;;;;4976969;28;20226;-63
2023/08/13 07:15:55;;;;;;;8.27;4.33;;;20.30;99.90;;;;;;4976989;28;20220;-62
2023/08/13 07:18:21;;;;;;;4.67;4.13;;;20.30;99.90;;;;;;4977155;28;20482;-62
2023/08/13 07:20:47;;;;;;;5.10;4.60;;;20.30;99.90;;;;;;4977201;28;20176;-62
2023/08/13 07:23:12;;;;;;;3.90;3.30;;;20.40;99.90;;;;;;4977135;28;20172;-62
2023/08/13 07:25:38;;;;;;;4.83;4.37;;;20.40;99.90;;;;;;4976719;28;20207;-62
2023/08/13 07:28:06;;;;;;;4.53;4.13;;;20.40;99.90;;;;;;4959508;28;20184;-60
2023/08/13 07:30:31;;;;;;;3.83;3.33;;;20.50;99.90;;;;;;4976902;28;20255;-62
2023/08/13 07:32:57;;;;;;;3.77;3.40;;;20.50;99.90;;;;;;4976979;28;20399;-61
2023/08/13 07:35:24;;;;;;;5.20;4.70;;;20.60;99.90;;;;;;4976632;28;20188;-61
2023/08/13 07:37:50;;;;;;;5.30;4.80;;;20.60;99.90;;;;;;4976852;28;20168;-60
2023/08/13 07:40:16;;;;;;;3.80;3.50;;;20.60;99.90;;;;;;4977108;28;20408;-60
2023/08/13 07:42:42;;;;;;;5.33;4.80;;;20.60;99.90;;;;;;4976906;28;20184;-61
2023/08/13 07:45:08;;;;;;;4.10;3.70;;;20.70;99.90;;;;;;4976277;28;20432;-61
2023/08/13 07:47:36;;;;;;;4.17;3.87;;;20.70;99.90;;;;;;4976486;28;20777;-60
2023/08/13 07:50:04;;;;;;;3.83;3.60;;;20.70;99.90;;;;;;4976438;28;20566;-60
2023/08/13 07:52:29;;;;;;;7.60;3.70;;;20.70;99.90;;;;;;4976518;28;20927;-61
2023/08/13 07:54:55;;;;;;;4.20;3.90;;;20.80;99.90;;;;;;4976333;28;20515;-61
2023/08/13 07:57:20;;;;;;;3.93;3.60;;;21.00;99.90;;;;;;4976625;28;20168;-62
2023/08/13 07:59:46;;;;;;;5.03;4.43;;;21.00;99.90;;;;;;4976500;28;20184;-60
2023/08/13 08:02:13;;;;;;;3.40;3.10;;;21.10;99.90;;;;;;4976392;28;20177;-61
2023/08/13 08:04:39;;;;;;;3.70;3.40;;;21.10;99.90;;;;;;4976025;28;20204;-60
2023/08/13 08:07:04;;;;;;;4.20;3.33;;;21.20;99.90;;;;;;4976250;28;20435;-60
2023/08/13 08:09:30;;;;;;;3.67;3.37;;;21.40;99.90;;;;;;4976254;28;20284;-60
2023/08/13 08:11:56;;;;;;;3.40;3.10;;;21.60;99.90;;;;;;4976313;28;20515;-60
2023/08/13 08:14:21;;;;;;;3.97;3.20;;;21.80;99.90;;;;;;4975820;28;20172;-60
2023/08/13 08:16:47;;;;;;;3.10;2.90;;;22.00;99.90;;;;;;4975275;28;20180;-60
2023/08/13 08:19:13;;;;;;;2.03;1.93;;;22.30;99.90;;;;;;4976123;28;20199;-61
2023/08/13 08:21:38;;;;;;;2.60;2.50;;;22.50;99.90;;;;;;4976022;28;20211;-60
2023/08/13 08:24:04;;;;;;;2.57;2.37;;;22.60;99.90;;;;;;4975685;28;20443;-63
2023/08/13 08:26:31;;;;;;;1.90;1.80;;;22.80;99.90;;;;;;4976101;28;20255;-59
2023/08/13 08:28:57;;;;;;;2.07;1.93;;;22.90;99.90;;;;;;4975843;28;20419;-61
2023/08/13 08:31:23;;;;;;;2.23;2.13;;;23.00;99.90;;;;;;4976108;28;20499;-62
2023/08/13 08:33:49;;;;;;;1.13;1.13;;;23.20;99.90;;;;;;4975429;28;20416;-60
2023/08/13 08:36:14;;;;;;;1.30;1.23;;;23.20;99.90;;;;;;4975649;28;20204;-60
2023/08/13 08:38:40;;;;;;;2.80;1.80;;;23.30;99.90;;;;;;4975721;28;20180;-61
2023/08/13 08:41:06;;;;;;;1.30;1.20;;;23.40;99.90;;;;;;4975590;28;20259;-61
2023/08/13 08:43:36;;;;;;;2.10;2.00;;;23.50;99.90;;;;;;4975471;28;20176;-60
2023/08/13 08:46:03;;;;;;;1.90;1.80;;;23.60;99.90;;;;;;4975383;28;20518;-61
2023/08/13 08:48:31;;;;;;;1.50;1.40;;;23.70;99.90;;;;;;4975673;28;20405;-60
2023/08/13 08:50:57;;;;;;;2.50;2.20;;;23.80;99.90;;;;;;4975486;28;20445;-60
2023/08/13 08:53:25;;;;;;;2.00;1.90;;;23.80;99.90;;;;;;4975137;28;20416;-61
2023/08/13 08:55:52;;;;;;;2.23;2.03;;;23.70;99.90;;;;;;4975219;28;20439;-60
2023/08/13 08:58:17;;;;;;;2.23;2.13;;;23.60;99.90;;;;;;4975181;28;20469;-60
2023/08/13 09:00:43;;;;;;;2.27;1.67;;;23.60;99.90;;;;;;4975417;28;20435;-60
2023/08/13 09:03:09;;;;;;;1.67;1.57;;;23.70;99.90;;;;;;4975397;28;20179;-61
2023/08/13 09:05:36;;;;;;;1.90;1.80;;;23.80;99.90;;;;;;4974808;28;20277;-62
2023/08/13 09:08:10;;;;;;;2.10;1.90;;;24.00;99.90;;;;;;4975201;28;20181;-61
2023/08/13 09:10:36;;;;;;;2.10;2.00;;;24.20;99.90;;;;;;4974980;28;20440;-62
2023/08/13 09:13:01;;;;;;;2.00;1.90;;;24.40;99.90;;;;;;4975140;28;20414;-61
2023/08/13 09:15:27;;;;;;;1.97;1.87;;;24.50;99.90;;;;;;4974681;28;20543;-61
2023/08/13 09:17:53;;;;;;;2.20;1.83;;;24.60;99.90;;;;;;4975153;28;20193;-61
2023/08/13 09:20:20;;;;;;;2.20;2.10;;;24.70;99.90;;;;;;4975052;28;20592;-61
2023/08/13 09:22:52;;;;;;;1.97;1.70;;;24.70;99.90;;;;;;4974846;28;20716;-62
2023/08/13 09:25:19;;;;;;;1.90;1.80;;;24.70;99.90;;;;;;4974326;28;20436;-61
2023/08/13 09:27:46;;;;;;;1.87;1.77;;;24.60;99.90;;;;;;4974640;28;20376;-61
2023/08/13 09:30:30;;;;;;;1.80;1.70;;;24.60;99.90;;;;;;4974926;28;20513;-60
2023/08/13 09:32:57;;;;;;;2.37;2.17;;;24.60;99.90;;;;;;4974835;28;20413;-60
2023/08/13 09:35:23;;;;;;;2.07;1.97;;;25.00;99.90;;;;;;4974409;28;20442;-61
2023/08/13 09:37:48;;;;;;;3.50;2.43;;;25.70;99.90;;;;;;4974892;28;20825;-61
2023/08/13 09:40:14;;;;;;;2.23;2.03;;;26.50;99.90;;;;;;4974622;28;20238;-61
2023/08/13 09:42:43;;;;;;;2.53;2.33;;;27.30;99.90;;;;;;4974688;28;20538;-62
2023/08/13 09:45:10;;;;;;;2.60;2.13;;;28.20;99.90;;;;;;4974587;28;20200;-61
2023/08/13 09:47:39;;;;;;;2.20;2.10;;;29.20;99.90;;;;;;4974707;28;20410;-62
2023/08/13 09:50:06;;;;;;;2.00;1.90;;;29.80;99.90;;;;;;4957381;28;20455;-62
2023/08/13 09:52:32;;;;;;;2.00;1.90;;;30.70;99.90;;;;;;4974706;28;20498;-62
2023/08/13 09:55:12;;;;;;;2.13;2.03;;;31.20;99.90;;;;;;4974226;28;20434;-62
2023/08/13 09:57:39;;;;;;;2.60;2.40;;;31.00;99.90;;;;;;4974779;28;20407;-62
2023/08/13 10:00:11;;;;;;;2.80;2.60;;;30.60;99.90;;;;;;4974536;28;20441;-62
2023/08/13 10:02:38;;;;;;;2.50;2.30;;;30.40;99.90;;;;;;4974610;28;20881;-62
2023/08/13 10:05:04;;;;;;;2.43;2.23;;;30.10;99.90;;;;;;4974080;28;20463;-62
2023/08/13 10:07:31;;;;;;;2.20;2.10;;;29.90;99.90;;;;;;4974412;28;20426;-62
2023/08/13 10:10:00;;;;;;;2.50;2.33;;;29.70;99.90;;;;;;4974437;28;20310;-62
2023/08/13 10:12:25;;;;;;;2.30;2.13;;;29.50;99.90;;;;;;4974389;28;20437;-62
2023/08/13 10:14:51;;;;;;;2.50;2.30;;;29.50;99.90;;;;;;4974002;28;20463;-62
2023/08/13 10:17:18;;;;;;;2.60;2.40;;;30.00;99.90;;;;;;4974567;28;20172;-63
2023/08/13 10:19:50;;;;;;;3.10;2.90;;;30.90;99.90;;;;;;4974655;28;20642;-63
2023/08/13 10:22:34;;;;;;;2.90;2.70;;;31.90;99.90;;;;;;4974281;28;20485;-63
2023/08/13 10:25:00;;;;;;;2.20;2.00;;;32.40;99.90;;;;;;4974104;28;20434;-63
2023/08/13 10:27:27;;;;;;;2.30;2.20;;;32.60;99.90;;;;;;4974375;28;20775;-64
2023/08/13 10:30:09;;;;;;;2.70;2.50;;;32.70;99.90;;;;;;4974210;28;20490;-63
2023/08/13 10:32:56;;;;;;;2.60;2.40;;;32.60;99.90;;;;;;4974454;28;20416;-63
2023/08/13 10:35:24;;;;;;;2.63;2.50;;;32.30;99.90;;;;;;4974023;28;20442;-62
2023/08/13 10:37:52;;;;;;;2.50;2.30;;;31.90;99.90;;;;;;4974360;28;20774;-62
2023/08/13 10:40:19;;;;;;;2.60;2.40;;;31.60;99.90;;;;;;4975865;28;20404;-62
2023/08/13 10:42:47;;;;;;;1.90;1.80;;;31.50;99.90;;;;;;4977947;28;20760;-62
2023/08/13 10:45:35;;;;;;;3.20;3.00;;;31.50;99.90;;;;;;4977377;28;20427;-62
2023/08/13 10:48:03;;;;;;;2.50;2.40;;;31.80;99.90;;;;;;4975265;28;20448;-62
2023/08/13 10:50:42;;;;;;;2.50;2.30;;;32.00;99.90;;;;;;4977579;28;20467;-62
2023/08/13 10:53:13;;;;;;;2.80;2.60;;;32.20;99.90;;;;;;4977902;28;20507;-62
2023/08/13 10:55:46;;;;;;;3.53;2.97;;;32.30;99.90;;;;;;4977062;28;20481;-62
2023/08/13 10:58:34;;;;;;;2.63;2.47;;;32.10;99.90;;;;;;4977672;28;20415;-62
2023/08/13 11:01:21;;;;;;;3.20;2.43;;;32.10;99.90;;;;;;4977445;28;20461;-62
2023/08/13 11:03:52;;;;;;;2.40;2.23;;;31.80;99.90;;;;;;4977285;28;20473;-62
2023/08/13 11:06:22;;;;;;;2.90;2.70;;;31.50;99.90;;;;;;4977127;28;20446;-62
2023/08/13 11:08:48;;;;;;;2.20;2.03;;;31.10;99.90;;;;;;4977287;28;20842;-62
2023/08/13 11:11:18;;;;;;;2.00;1.90;;;30.70;99.90;;;;;;4977185;28;20463;-62
2023/08/13 11:13:44;;;;;;;2.60;2.40;;;30.40;99.90;;;;;;4976895;28;20481;-62
2023/08/13 11:16:11;;;;;;;2.50;2.30;;;30.10;99.90;;;;;;4977197;28;20447;-61
2023/08/13 11:18:37;;;;;;;2.53;2.20;;;29.80;99.90;;;;;;4977613;28;20394;-62
2023/08/13 11:21:02;;;;;;;3.10;2.00;;;29.60;99.90;;;;;;4977116;28;21038;-62
2023/08/13 11:23:28;;;;;;;2.53;2.07;;;29.60;99.90;;;;;;4976822;28;20658;-62
2023/08/13 11:25:55;;;;;;;2.07;1.97;;;29.60;99.90;;;;;;4976782;28;20203;-63
2023/08/13 11:28:28;;;;;;;2.30;2.20;;;29.60;99.90;;;;;;4977023;28;20423;-61
2023/08/13 11:30:56;;;;;;;2.87;2.60;;;29.60;99.90;;;;;;4959444;28;20795;-62
2023/08/13 11:33:23;;;;;;;2.00;1.90;;;29.40;99.90;;;;;;4977014;28;20761;-61
2023/08/13 11:35:49;;;;;;;2.50;2.30;;;29.50;99.90;;;;;;4976721;28;20813;-61
2023/08/13 11:38:15;;;;;;;1.80;1.70;;;29.30;99.90;;;;;;4976867;28;20409;-61
2023/08/13 11:40:41;;;;;;;2.37;2.17;;;29.20;99.90;;;;;;4976626;28;20477;-61
2023/08/13 11:43:10;;;;;;;2.60;2.40;;;29.40;99.90;;;;;;4976524;28;20195;-61
2023/08/13 11:45:36;;;;;;;2.30;2.10;;;29.40;99.90;;;;;;4976205;28;20228;-62
2023/08/13 11:48:13;;;;;;;2.63;2.47;;;29.50;99.90;;;;;;4976659;28;20402;-61
2023/08/13 11:50:40;;;;;;;2.80;2.23;;;29.70;99.90;;;;;;4976600;28;20428;-62
2023/08/13 11:53:13;;;;;;;2.10;2.00;;;29.80;99.90;;;;;;4976674;28;20383;-62
2023/08/13 11:55:42;;;;;;;2.30;2.00;;;29.80;99.90;;;;;;4976094;28;20482;-62
2023/08/13 11:58:07;;;;;;;2.43;2.23;;;29.90;99.90;;;;;;4976378;28;20433;-62
2023/08/13 12:00:34;;;;;;;2.60;2.40;;;29.90;99.90;;;;;;4976543;28;20745;-62
2023/08/13 12:03:00;;;;;;;3.50;2.20;;;29.80;99.90;;;;;;4976265;28;20176;-61
2023/08/13 12:05:31;;;;;;;2.70;2.50;;;29.60;99.90;;;;;;4975822;28;20445;-61
2023/08/13 12:08:02;;;;;;;3.13;2.90;;;29.50;99.90;;;;;;4976160;28;20809;-62
2023/08/13 12:10:28;;;;;;;2.33;2.17;;;29.30;99.90;;;;;;4976321;28;20446;-62
2023/08/13 12:12:53;;;;;;;2.97;2.77;;;29.20;99.90;;;;;;4976037;28;20474;-62
2023/08/13 12:15:23;;;;;;;2.50;2.30;;;28.90;99.90;;;;;;4975636;28;20199;-61
2023/08/13 12:17:50;;;;;;;2.23;2.13;;;28.60;99.90;;;;;;4976288;28;20180;-61
2023/08/13 12:20:15;;;;;;;2.10;2.00;;;28.60;99.90;;;;;;4975900;28;20751;-61
2023/08/13 12:22:41;;;;;;;2.97;2.77;;;28.60;99.90;;;;;;4976011;28;20413;-61
2023/08/13 12:25:07;;;;;;;2.20;2.10;;;28.60;99.90;;;;;;4975574;28;20204;-61
2023/08/13 12:27:33;;;;;;;3.03;2.83;;;28.60;99.90;;;;;;4975999;28;20530;-61
2023/08/13 12:29:59;;;;;;;2.23;2.13;;;28.40;99.90;;;;;;4975730;28;20199;-61
2023/08/13 12:32:25;;;;;;;2.40;2.27;;;28.20;99.90;;;;;;4975875;28;20951;-62
2023/08/13 12:34:50;;;;;;;3.43;3.13;;;28.00;99.90;;;;;;4975293;28;20223;-61
2023/08/13 12:37:16;;;;;;;1.97;1.87;;;27.80;99.90;;;;;;4975639;28;20168;-62
2023/08/13 12:39:42;;;;;;;2.83;2.60;;;27.60;99.90;;;;;;4975788;28;20180;-61
2023/08/13 12:42:09;;;;;;;2.70;2.50;;;27.60;99.90;;;;;;4958266;28;20188;-61
2023/08/13 12:44:34;;;;;;;2.67;2.47;;;27.50;99.90;;;;;;4975056;28;20950;-60
2023/08/13 12:47:00;;;;;;;2.50;2.30;;;27.60;99.90;;;;;;4975527;28;20482;-61
2023/08/13 12:49:26;;;;;;;2.67;2.47;;;27.70;99.90;;;;;;4975430;28;20583;-62
2023/08/13 12:51:51;;;;;;;2.40;2.30;;;27.60;99.90;;;;;;4975351;28;20175;-62
2023/08/13 12:54:17;;;;;;;2.80;2.60;;;27.60;99.90;;;;;;4975248;28;20577;-62
2023/08/13 12:56:42;;;;;;;2.60;2.40;;;27.50;99.90;;;;;;4975513;28;20267;-61
2023/08/13 12:59:08;;;;;;;2.40;2.20;;;27.50;99.90;;;;;;4975168;28;20650;-62
2023/08/13 13:01:34;;;;;;;2.00;1.90;;;27.60;99.90;;;;;;4958226;28;20172;-62
2023/08/13 13:03:59;;;;;;;2.37;2.17;;;27.60;99.90;;;;;;4974593;28;20187;-61
2023/08/13 13:06:25;;;;;;;2.87;2.67;;;27.60;99.90;;;;;;4974793;28;20294;-61
2023/08/13 13:08:50;;;;;;;2.60;2.17;;;27.60;99.90;;;;;;4975088;28;20175;-62
2023/08/13 13:11:17;;;;;;;2.90;2.70;;;27.70;99.90;;;;;;4975046;28;20303;-62
2023/08/13 13:13:42;;;;;;;2.23;2.13;;;27.70;99.90;;;;;;4974905;28;20204;-61
2023/08/13 13:16:08;;;;;;;3.43;2.43;;;27.80;99.90;;;;;;4974819;28;20428;-62
2023/08/13 13:18:34;;;;;;;5.37;4.20;;;27.90;99.90;;;;;;4975053;28;20207;-62
2023/08/13 13:20:59;;;;;;;3.43;3.20;;;28.00;99.90;;;;;;4974812;28;20643;-62
2023/08/13 13:23:25;;;;;;;2.90;2.70;;;28.00;99.90;;;;;;4974694;28;20540;-62
2023/08/13 13:25:50;;;;;;;2.40;2.20;;;27.90;99.90;;;;;;4975000;28;20690;-61
2023/08/13 13:28:16;;;;;;;2.40;2.27;;;27.80;99.90;;;;;;4974860;28;20186;-61
2023/08/13 13:30:42;;;;;;;2.33;2.17;;;27.80;99.90;;;;;;4974789;28;20198;-61
2023/08/13 13:33:07;;;;;;;1.90;1.80;;;27.60;99.90;;;;;;4974627;28;20198;-61
2023/08/13 13:35:33;;;;;;;2.50;2.00;;;27.50;99.90;;;;;;4974296;28;20760;-60
2023/08/13 13:37:59;;;;;;;1.67;1.57;;;27.40;99.90;;;;;;4974708;28;20528;-62
2023/08/13 13:40:25;;;;;;;2.37;2.17;;;27.30;99.90;;;;;;4974777;28;20182;-61
2023/08/13 13:42:51;;;;;;;2.60;2.20;;;27.20;99.90;;;;;;4974785;28;20623;-61
2023/08/13 13:45:22;;;;;;;2.00;1.90;;;27.10;99.90;;;;;;4974434;28;20448;-60
2023/08/13 13:47:47;;;;;;;2.60;2.40;;;27.00;99.90;;;;;;4974749;28;20881;-61
2023/08/13 13:50:16;;;;;;;2.43;2.23;;;27.10;99.90;;;;;;4974712;28;20471;-61
2023/08/13 13:52:43;;;;;;;2.30;2.10;;;27.20;99.90;;;;;;4974993;28;20190;-62
2023/08/13 13:55:08;;;;;;;2.70;1.80;;;27.10;99.90;;;;;;4974451;28;20738;-60
2023/08/13 13:57:34;;;;;;;1.63;1.53;;;27.10;99.90;;;;;;4974588;28;20424;-63
2023/08/13 14:00:00;;;;;;;2.30;1.93;;;27.30;99.90;;;;;;4974583;28;20683;-63
2023/08/13 14:02:26;;;;;;;1.67;1.57;;;27.30;99.90;;;;;;4974578;28;20179;-62
2023/08/13 14:04:51;;;;;;;2.43;2.23;;;27.30;99.90;;;;;;4974164;28;20939;-62
2023/08/13 14:07:17;;;;;;;1.90;1.80;;;27.30;99.90;;;;;;4974488;28;20199;-62
2023/08/13 14:09:43;;;;;;;1.60;1.50;;;27.30;99.90;;;;;;4974389;28;20520;-62
2023/08/13 14:12:08;;;;;;;1.50;1.40;;;27.40;99.90;;;;;;4974651;28;20183;-63
2023/08/13 14:14:34;;;;;;;1.87;1.77;;;27.40;99.90;;;;;;4957518;28;20691;-61
2023/08/13 14:17:00;;;;;;;1.50;1.40;;;27.40;99.90;;;;;;4978329;28;20530;-61
2023/08/13 14:19:25;;;;;;;2.07;1.93;;;27.40;99.90;;;;;;4978141;28;20258;-61
2023/08/13 14:21:51;;;;;;;1.77;1.67;;;27.30;99.90;;;;;;4978055;28;20256;-62
2023/08/13 14:24:16;;;;;;;1.63;1.53;;;27.30;99.90;;;;;;4977813;28;20190;-62
2023/08/13 14:26:42;;;;;;;1.50;1.40;;;27.30;99.90;;;;;;4978130;28;20282;-61
2023/08/13 14:29:08;;;;;;;3.23;1.83;;;27.30;99.90;;;;;;4978195;28;20184;-61
2023/08/13 14:31:34;;;;;;;1.63;1.53;;;27.40;99.90;;;;;;4978134;28;20392;-61
2023/08/13 14:33:59;;;;;;;1.77;1.67;;;27.40;99.90;;;;;;4977861;28;20586;-62
2023/08/13 14:36:25;;;;;;;1.60;1.50;;;27.50;99.90;;;;;;4978208;28;20658;-61
2023/08/13 14:38:52;;;;;;;1.50;1.40;;;27.50;99.90;;;;;;4977876;28;20531;-62
2023/08/13 14:41:18;;;;;;;1.80;1.70;;;27.40;99.90;;;;;;4977869;28;20688;-61
2023/08/13 14:43:43;;;;;;;2.00;1.73;;;27.40;99.90;;;;;;4977579;28;20908;-62
2023/08/13 14:46:09;;;;;;;1.43;1.33;;;27.20;99.90;;;;;;4977734;28;20438;-61
2023/08/13 14:48:35;;;;;;;2.50;1.60;;;27.30;99.90;;;;;;4977664;28;20178;-62
2023/08/13 14:51:00;;;;;;;1.97;1.87;;;27.30;99.90;;;;;;4977641;28;20241;-62
2023/08/13 14:53:26;;;;;;;1.53;1.43;;;27.30;99.90;;;;;;4977400;28;20182;-60
2023/08/13 14:55:51;;;;;;;1.60;1.50;;;27.30;99.90;;;;;;4977357;28;20229;-63
2023/08/13 14:58:17;;;;;;;1.03;1.03;;;27.30;99.90;;;;;;4977551;28;20228;-62
2023/08/13 15:00:42;;;;;;;1.90;1.80;;;27.20;99.90;;;;;;4977542;28;20523;-61
2023/08/13 15:03:08;;;;;;;2.00;1.87;;;27.30;99.90;;;;;;4977400;28;20177;-61
2023/08/13 15:05:35;;;;;;;1.63;1.53;;;27.30;99.90;;;;;;4976879;28;20314;-61
2023/08/13 15:08:01;;;;;;;1.70;1.60;;;27.40;99.90;;;;;;4977537;28;20558;-62
2023/08/13 15:10:27;;;;;;;2.03;1.90;;;27.40;99.90;;;;;;4977396;28;20502;-61
2023/08/13 15:12:52;;;;;;;2.03;1.93;;;27.40;99.90;;;;;;4977212;28;20513;-62
2023/08/13 15:15:18;;;;;;;1.70;1.60;;;27.40;99.90;;;;;;4976730;28;20199;-61
2023/08/13 15:17:44;;;;;;;2.63;1.70;;;27.50;99.90;;;;;;4977282;28;20229;-60
2023/08/13 15:20:10;;;;;;;1.93;1.50;;;27.50;99.90;;;;;;4977059;28;20189;-60
2023/08/13 15:22:37;;;;;;;1.90;1.60;;;27.50;99.90;;;;;;4977189;28;20183;-61
2023/08/13 15:25:03;;;;;;;1.60;1.50;;;27.50;99.90;;;;;;4976722;28;20403;-61
2023/08/13 15:27:29;;;;;;;2.13;1.83;;;27.40;99.90;;;;;;4976911;28;20416;-61
2023/08/13 15:29:54;;;;;;;1.33;1.20;;;27.20;99.90;;;;;;4976799;28;20454;-61
2023/08/13 15:32:21;;;;;;;1.03;1.03;;;27.10;99.90;;;;;;4977462;28;20385;-61
2023/08/13 15:34:47;;;;;;;1.67;1.57;;;27.10;99.90;;;;;;4976533;28;20202;-61
2023/08/13 15:37:13;;;;;;;1.60;1.50;;;27.10;99.90;;;;;;4976802;28;20745;-62
2023/08/13 15:39:42;;;;;;;1.27;1.27;;;27.00;99.90;;;;;;4976637;28;20594;-62
2023/08/13 15:42:08;;;;;;;1.60;1.50;;;27.00;99.90;;;;;;4976923;28;20770;-62
2023/08/13 15:44:33;;;;;;;1.43;1.20;;;26.90;99.90;;;;;;4976181;28;20408;-61
2023/08/13 15:46:59;;;;;;;2.27;2.00;;;26.90;99.90;;;;;;4959567;28;20857;-62
2023/08/13 15:49:24;;;;;;;1.23;1.23;;;26.90;99.90;;;;;;4976685;28;20268;-61
2023/08/13 15:51:50;;;;;;;1.53;1.43;;;27.00;99.90;;;;;;4976580;28;20173;-61
2023/08/13 15:54:16;;;;;;;1.47;1.40;;;27.10;99.90;;;;;;4976234;28;20648;-60
2023/08/13 15:56:41;;;;;;;1.80;1.47;;;27.10;99.90;;;;;;4976593;28;20501;-62
2023/08/13 15:59:09;;;;;;;1.33;1.23;;;27.20;99.90;;;;;;4976497;28;20197;-61
2023/08/13 16:01:38;;;;;;;1.50;1.40;;;27.20;99.90;;;;;;4977208;28;20186;-62
2023/08/13 16:04:07;;;;;;;1.73;1.63;;;27.20;99.90;;;;;;4975930;28;20414;-61
2023/08/13 16:06:33;;;;;;;3.70;1.83;;;27.20;99.90;;;;;;4976011;28;20441;-62
2023/08/13 16:08:59;;;;;;;1.50;1.40;;;27.20;99.90;;;;;;4976451;28;20428;-62
2023/08/13 16:11:25;;;;;;;1.87;1.77;;;27.20;99.90;;;;;;4976206;28;20424;-62
2023/08/13 16:13:50;;;;;;;1.80;1.70;;;27.30;99.90;;;;;;4975880;28;20199;-62
2023/08/13 16:16:16;;;;;;;1.40;1.30;;;27.30;99.90;;;;;;4976448;28;20198;-61
2023/08/13 16:18:42;;;;;;;1.77;1.67;;;27.40;99.90;;;;;;4976237;28;20180;-62
2023/08/13 16:21:08;;;;;;;1.80;1.70;;;27.40;99.90;;;;;;4975952;28;20555;-62
2023/08/13 16:23:34;;;;;;;2.13;1.97;;;27.40;99.90;;;;;;4975675;28;20461;-62
2023/08/13 16:26:01;;;;;;;1.67;1.57;;;27.40;99.90;;;;;;4975759;28;20203;-62
2023/08/13 16:28:27;;;;;;;1.53;1.43;;;27.50;99.90;;;;;;4975933;28;20388;-61
2023/08/13 16:30:52;;;;;;;1.23;1.23;;;27.50;99.90;;;;;;4958611;28;20455;-62
2023/08/13 16:33:18;;;;;;;1.60;1.50;;;27.60;99.90;;;;;;4975798;28;20172;-62
2023/08/13 16:35:44;;;;;;;1.70;1.60;;;27.60;99.90;;;;;;4975537;28;20196;-61
2023/08/13 16:38:09;;;;;;;1.40;1.30;;;27.60;99.90;;;;;;4975039;28;20190;-62
2023/08/13 16:40:35;;;;;;;1.47;1.37;;;27.60;99.90;;;;;;4975813;28;20179;-61
2023/08/13 16:43:00;;;;;;;1.27;1.27;;;27.60;99.90;;;;;;4975658;28;20180;-62
2023/08/13 16:45:26;;;;;;;1.63;1.53;;;27.70;99.90;;;;;;4975185;28;20204;-61
2023/08/13 16:47:54;;;;;;;2.33;2.20;;;27.60;99.90;;;;;;4975690;28;20634;-62
2023/08/13 16:50:23;;;;;;;1.80;1.70;;;27.60;99.90;;;;;;4975537;28;20281;-63